NOO797 EGNX-LOWW
Flight info
| Callsign | NOO797 |
|---|---|
| Flight time | 1h 54m |
| Altitude | 35000 |
| Route | SAPC1N SAPCO UY53 DTY L10 DVR UL9 KONAN L607 KOK UL607 MATUG DCT AMASI DCT BOMBI DCT IBAGA DCT MOOCE L604 RUDNO DCT BUDEX BUDE2W |
| Aircraft | B763/H-SDE3FGHIM3RWXY/LB1 |
Departure
| Time | 2026-05-04 14:54 |
|---|---|
| Airport | East Midlands Airport (EGNX) |
Arrival
| Time | 2026-05-04 16:48 |
|---|---|
| Airport | Vienna International Airport (LOWW) |
| Time | Latitude | Longitude | Altitude | Speed | Heading |
|---|---|---|---|---|---|
| 2026-05-04 14:25 | 52.82740 | -1.35414 | 318 ft | 0 kts | 178° |
| 2026-05-04 14:40 | 52.82741 | -1.35414 | 317 ft | 0 kts | 178° |
| 2026-05-04 14:40 | 52.82754 | -1.35415 | 317 ft | 2 kts | 179° |
| 2026-05-04 14:41 | 52.82769 | -1.35415 | 317 ft | 2 kts | 178° |
| 2026-05-04 14:41 | 52.82784 | -1.35418 | 317 ft | 2 kts | 160° |
| 2026-05-04 14:41 | 52.82807 | -1.35449 | 317 ft | 2 kts | 118° |
| 2026-05-04 14:42 | 52.82812 | -1.35497 | 317 ft | 2 kts | 86° |
| 2026-05-04 14:42 | 52.82811 | -1.35522 | 317 ft | 2 kts | 90° |
| 2026-05-04 14:42 | 52.82811 | -1.35547 | 317 ft | 2 kts | 90° |
| 2026-05-04 14:43 | 52.82811 | -1.35572 | 317 ft | 2 kts | 89° |
| 2026-05-04 14:43 | 52.82811 | -1.35596 | 317 ft | 2 kts | 90° |
| 2026-05-04 14:43 | 52.82811 | -1.35613 | 317 ft | 0 kts | 90° |
| 2026-05-04 14:43 | 52.82811 | -1.35612 | 317 ft | 0 kts | 90° |
| 2026-05-04 14:45 | 52.82811 | -1.35600 | 317 ft | 5 kts | 90° |
| 2026-05-04 14:46 | 52.82812 | -1.35452 | 317 ft | 19 kts | 88° |
| 2026-05-04 14:46 | 52.82870 | -1.35255 | 317 ft | 17 kts | 36° |
| 2026-05-04 14:46 | 52.82892 | -1.35070 | 317 ft | 18 kts | 89° |
| 2026-05-04 14:46 | 52.82898 | -1.34834 | 317 ft | 22 kts | 86° |
| 2026-05-04 14:47 | 52.82904 | -1.34562 | 317 ft | 25 kts | 92° |
| 2026-05-04 14:47 | 52.82903 | -1.34249 | 317 ft | 28 kts | 90° |
| 2026-05-04 14:47 | 52.82907 | -1.33930 | 317 ft | 27 kts | 89° |
| 2026-05-04 14:47 | 52.82913 | -1.33606 | 317 ft | 27 kts | 88° |
| 2026-05-04 14:48 | 52.82918 | -1.33293 | 317 ft | 26 kts | 89° |
| 2026-05-04 14:48 | 52.82924 | -1.33003 | 317 ft | 24 kts | 88° |
| 2026-05-04 14:48 | 52.82931 | -1.32736 | 317 ft | 22 kts | 87° |
| 2026-05-04 14:48 | 52.82934 | -1.32491 | 317 ft | 19 kts | 90° |
| 2026-05-04 14:49 | 52.82935 | -1.32276 | 317 ft | 17 kts | 88° |
| 2026-05-04 14:49 | 52.82940 | -1.32083 | 317 ft | 15 kts | 89° |
| 2026-05-04 14:49 | 52.82944 | -1.31917 | 317 ft | 13 kts | 88° |
| 2026-05-04 14:49 | 52.82948 | -1.31773 | 317 ft | 11 kts | 88° |
| 2026-05-04 14:50 | 52.82949 | -1.31635 | 317 ft | 12 kts | 89° |
| 2026-05-04 14:50 | 52.82951 | -1.31496 | 317 ft | 11 kts | 88° |
| 2026-05-04 14:50 | 52.82954 | -1.31358 | 317 ft | 11 kts | 87° |
| 2026-05-04 14:50 | 52.82956 | -1.31225 | 317 ft | 11 kts | 90° |
| 2026-05-04 14:51 | 52.82958 | -1.31094 | 317 ft | 11 kts | 88° |
| 2026-05-04 14:51 | 52.82961 | -1.30960 | 317 ft | 12 kts | 89° |
| 2026-05-04 14:51 | 52.82962 | -1.30818 | 317 ft | 12 kts | 83° |
| 2026-05-04 14:51 | 52.83006 | -1.30697 | 317 ft | 12 kts | 35° |
| 2026-05-04 14:52 | 52.83083 | -1.30674 | 317 ft | 10 kts | 356° |
| 2026-05-04 14:52 | 52.83134 | -1.30708 | 317 ft | 5 kts | 288° |
| 2026-05-04 14:52 | 52.83136 | -1.30767 | 317 ft | 4 kts | 272° |
| 2026-05-04 14:52 | 52.83134 | -1.30862 | 317 ft | 22 kts | 267° |
| 2026-05-04 14:53 | 52.83123 | -1.31423 | 317 ft | 74 kts | 268° |
| 2026-05-04 14:53 | 52.83101 | -1.32558 | 317 ft | 121 kts | 269° |
| 2026-05-04 14:53 | 52.83076 | -1.34207 | 319 ft | 163 kts | 270° |
| 2026-05-04 14:53 | 52.83075 | -1.36251 | 444 ft | 189 kts | 270° |
| 2026-05-04 14:54 | 52.82842 | -1.38468 | 855 ft | 201 kts | 245° |
| 2026-05-04 14:54 | 52.81951 | -1.40311 | 1326 ft | 209 kts | 225° |
| 2026-05-04 14:54 | 52.80891 | -1.41970 | 1726 ft | 221 kts | 224° |
| 2026-05-04 14:54 | 52.79704 | -1.43786 | 2039 ft | 239 kts | 223° |
| 2026-05-04 14:55 | 52.78443 | -1.45703 | 2487 ft | 251 kts | 223° |
| 2026-05-04 14:55 | 52.77119 | -1.47628 | 3131 ft | 255 kts | 215° |
| 2026-05-04 14:55 | 52.75491 | -1.48674 | 3788 ft | 256 kts | 185° |
| 2026-05-04 14:55 | 52.73726 | -1.48322 | 4448 ft | 257 kts | 163° |
| 2026-05-04 14:56 | 52.72033 | -1.47359 | 5103 ft | 259 kts | 160° |
| 2026-05-04 14:56 | 52.70354 | -1.46295 | 5753 ft | 261 kts | 159° |
| 2026-05-04 14:56 | 52.68664 | -1.45151 | 6383 ft | 264 kts | 158° |
| 2026-05-04 14:56 | 52.66973 | -1.43968 | 7011 ft | 266 kts | 157° |
| 2026-05-04 14:57 | 52.65258 | -1.42792 | 7652 ft | 267 kts | 159° |
| 2026-05-04 14:57 | 52.63505 | -1.41695 | 8236 ft | 271 kts | 159° |
| 2026-05-04 14:57 | 52.61752 | -1.40589 | 8824 ft | 274 kts | 159° |
| 2026-05-04 14:57 | 52.59927 | -1.39436 | 9011 ft | 283 kts | 159° |
| 2026-05-04 14:58 | 52.58107 | -1.38285 | 8985 ft | 273 kts | 159° |
| 2026-05-04 14:58 | 52.56347 | -1.37171 | 9000 ft | 273 kts | 159° |
| 2026-05-04 14:58 | 52.54570 | -1.36047 | 9001 ft | 274 kts | 159° |
| 2026-05-04 14:58 | 52.52788 | -1.34864 | 9107 ft | 277 kts | 158° |
| 2026-05-04 14:59 | 52.51000 | -1.33643 | 9694 ft | 278 kts | 158° |
| 2026-05-04 14:59 | 52.49224 | -1.32435 | 10279 ft | 281 kts | 158° |
| 2026-05-04 14:59 | 52.45379 | -1.29826 | 10704 ft | 316 kts | 158° |
| 2026-05-04 15:00 | 52.43297 | -1.28416 | 10944 ft | 333 kts | 158° |
| 2026-05-04 15:00 | 52.41101 | -1.26928 | 11172 ft | 350 kts | 158° |
| 2026-05-04 15:00 | 52.38773 | -1.25354 | 11442 ft | 367 kts | 158° |
| 2026-05-04 15:01 | 52.33902 | -1.22064 | 12437 ft | 385 kts | 159° |
| 2026-05-04 15:01 | 52.31434 | -1.20402 | 13113 ft | 389 kts | 159° |
| 2026-05-04 15:01 | 52.28901 | -1.18697 | 13787 ft | 392 kts | 159° |
| 2026-05-04 15:01 | 52.26397 | -1.17013 | 14429 ft | 395 kts | 159° |
| 2026-05-04 15:02 | 52.23848 | -1.15302 | 15065 ft | 399 kts | 159° |
| 2026-05-04 15:02 | 52.21297 | -1.13524 | 15678 ft | 402 kts | 155° |
| 2026-05-04 15:02 | 52.18917 | -1.11162 | 16271 ft | 407 kts | 144° |
| 2026-05-04 15:02 | 52.16800 | -1.08082 | 16859 ft | 411 kts | 134° |
| 2026-05-04 15:03 | 52.15025 | -1.04401 | 17433 ft | 416 kts | 125° |
| 2026-05-04 15:03 | 52.13405 | -1.00488 | 17996 ft | 419 kts | 125° |
| 2026-05-04 15:03 | 52.11767 | -0.96573 | 18556 ft | 423 kts | 125° |
| 2026-05-04 15:03 | 52.10104 | -0.92614 | 19098 ft | 426 kts | 125° |
| 2026-05-04 15:04 | 52.08432 | -0.88648 | 19637 ft | 430 kts | 125° |
| 2026-05-04 15:04 | 52.06725 | -0.84610 | 20185 ft | 433 kts | 125° |
| 2026-05-04 15:04 | 52.05026 | -0.80597 | 20706 ft | 436 kts | 125° |
| 2026-05-04 15:04 | 52.03305 | -0.76539 | 21218 ft | 440 kts | 125° |
| 2026-05-04 15:05 | 52.01566 | -0.72446 | 21726 ft | 443 kts | 125° |
| 2026-05-04 15:05 | 51.99977 | -0.68713 | 22176 ft | 446 kts | 125° |
| 2026-05-04 15:05 | 51.98513 | -0.65272 | 22600 ft | 448 kts | 126° |
| 2026-05-04 15:06 | 51.94964 | -0.56968 | 23658 ft | 453 kts | 126° |
| 2026-05-04 15:06 | 51.93200 | -0.52850 | 24141 ft | 456 kts | 126° |
| 2026-05-04 15:06 | 51.91398 | -0.48652 | 24749 ft | 458 kts | 126° |
| 2026-05-04 15:07 | 51.87814 | -0.40323 | 25914 ft | 464 kts | 126° |
| 2026-05-04 15:07 | 51.86116 | -0.36384 | 26446 ft | 466 kts | 126° |
| 2026-05-04 15:07 | 51.84177 | -0.31895 | 27054 ft | 469 kts | 127° |
| 2026-05-04 15:07 | 51.82365 | -0.27711 | 27572 ft | 472 kts | 127° |
| 2026-05-04 15:08 | 51.80508 | -0.23425 | 28090 ft | 475 kts | 127° |
| 2026-05-04 15:08 | 51.78596 | -0.19018 | 28662 ft | 477 kts | 127° |
| 2026-05-04 15:08 | 51.76686 | -0.14622 | 29365 ft | 476 kts | 127° |
| 2026-05-04 15:08 | 51.74871 | -0.10436 | 30096 ft | 472 kts | 126° |
| 2026-05-04 15:09 | 51.73082 | -0.05991 | 30791 ft | 470 kts | 124° |
| 2026-05-04 15:09 | 51.71333 | -0.01612 | 31342 ft | 470 kts | 124° |
| 2026-05-04 15:09 | 51.69547 | 0.02853 | 31958 ft | 468 kts | 126° |
| 2026-05-04 15:10 | 51.66251 | 0.11059 | 32328 ft | 482 kts | 126° |
| 2026-05-04 15:10 | 51.64844 | 0.14554 | 32706 ft | 482 kts | 126° |
| 2026-05-04 15:11 | 51.56855 | 0.34890 | 35007 ft | 472 kts | 124° |
| 2026-05-04 15:11 | 51.55122 | 0.39283 | 34993 ft | 473 kts | 124° |
| 2026-05-04 15:12 | 51.51635 | 0.48106 | 34999 ft | 469 kts | 124° |
| 2026-05-04 15:12 | 51.48131 | 0.56937 | 35002 ft | 469 kts | 124° |
| 2026-05-04 15:13 | 51.44807 | 0.65289 | 35000 ft | 469 kts | 126° |
| 2026-05-04 15:13 | 51.41483 | 0.73610 | 34999 ft | 468 kts | 126° |
| 2026-05-04 15:14 | 51.38003 | 0.82298 | 34998 ft | 468 kts | 126° |
| 2026-05-04 15:14 | 51.34475 | 0.91072 | 34998 ft | 468 kts | 126° |
| 2026-05-04 15:15 | 51.30978 | 0.99738 | 34998 ft | 468 kts | 126° |
| 2026-05-04 15:15 | 51.27447 | 1.08462 | 34997 ft | 467 kts | 126° |
| 2026-05-04 15:16 | 51.22127 | 1.21547 | 34998 ft | 468 kts | 126° |
| 2026-05-04 15:17 | 51.17225 | 1.34946 | 35000 ft | 473 kts | 114° |
| 2026-05-04 15:17 | 51.15852 | 1.45219 | 35004 ft | 482 kts | 98° |
| 2026-05-04 15:17 | 51.15583 | 1.50580 | 35000 ft | 483 kts | 97° |
| 2026-05-04 15:18 | 51.15049 | 1.61261 | 34998 ft | 483 kts | 97° |
| 2026-05-04 15:19 | 51.14254 | 1.77092 | 34997 ft | 482 kts | 98° |
| 2026-05-04 15:19 | 51.13434 | 1.93095 | 34997 ft | 482 kts | 98° |
| 2026-05-04 15:20 | 51.12877 | 2.03728 | 34994 ft | 484 kts | 98° |
| 2026-05-04 15:20 | 51.12303 | 2.14500 | 34996 ft | 486 kts | 98° |
| 2026-05-04 15:21 | 51.11723 | 2.25198 | 34997 ft | 486 kts | 98° |
| 2026-05-04 15:22 | 51.10833 | 2.41264 | 34998 ft | 485 kts | 98° |
| 2026-05-04 15:22 | 51.09916 | 2.57423 | 34998 ft | 487 kts | 98° |
| 2026-05-04 15:23 | 51.08942 | 2.67649 | 34998 ft | 480 kts | 110° |
| 2026-05-04 15:23 | 51.07124 | 2.77993 | 34988 ft | 480 kts | 110° |
| 2026-05-04 15:24 | 51.03542 | 2.97795 | 34988 ft | 479 kts | 111° |
| 2026-05-04 15:25 | 51.01667 | 3.08016 | 34986 ft | 480 kts | 111° |
| 2026-05-04 15:26 | 50.98843 | 3.23293 | 34981 ft | 481 kts | 111° |
| 2026-05-04 15:26 | 50.95986 | 3.38620 | 34977 ft | 481 kts | 111° |
| 2026-05-04 15:27 | 50.93111 | 3.53916 | 34972 ft | 481 kts | 111° |
| 2026-05-04 15:28 | 50.90256 | 3.68922 | 34959 ft | 476 kts | 111° |
| 2026-05-04 15:29 | 50.87490 | 3.83255 | 34970 ft | 477 kts | 111° |
| 2026-05-04 15:30 | 50.80543 | 4.18789 | 34968 ft | 478 kts | 111° |
| 2026-05-04 15:31 | 50.77750 | 4.32888 | 34970 ft | 478 kts | 112° |
| 2026-05-04 15:32 | 50.72594 | 4.58657 | 34969 ft | 479 kts | 112° |
| 2026-05-04 15:34 | 50.67747 | 4.83589 | 34969 ft | 480 kts | 112° |
| 2026-05-04 15:34 | 50.64823 | 4.98228 | 34984 ft | 481 kts | 113° |
| 2026-05-04 15:35 | 50.61739 | 5.13220 | 34995 ft | 482 kts | 113° |
| 2026-05-04 15:36 | 50.58620 | 5.28270 | 34994 ft | 482 kts | 113° |
| 2026-05-04 15:36 | 50.56549 | 5.38200 | 34995 ft | 483 kts | 113° |
| 2026-05-04 15:37 | 50.54444 | 5.48250 | 34995 ft | 483 kts | 113° |
| 2026-05-04 15:37 | 50.52333 | 5.58266 | 34997 ft | 484 kts | 113° |
| 2026-05-04 15:38 | 50.50716 | 5.68368 | 34998 ft | 489 kts | 107° |
| 2026-05-04 15:38 | 50.49336 | 5.79021 | 34992 ft | 489 kts | 107° |
| 2026-05-04 15:39 | 50.48029 | 5.89030 | 34992 ft | 489 kts | 107° |
| 2026-05-04 15:40 | 50.46137 | 6.03446 | 34990 ft | 489 kts | 107° |
| 2026-05-04 15:40 | 50.44750 | 6.13921 | 34993 ft | 491 kts | 107° |
| 2026-05-04 15:41 | 50.43366 | 6.24300 | 34993 ft | 490 kts | 107° |
| 2026-05-04 15:41 | 50.41970 | 6.34686 | 34995 ft | 491 kts | 107° |
| 2026-05-04 15:42 | 50.40541 | 6.45134 | 34993 ft | 491 kts | 107° |
| 2026-05-04 15:42 | 50.39104 | 6.55541 | 34994 ft | 492 kts | 107° |
| 2026-05-04 15:43 | 50.37737 | 6.65372 | 34994 ft | 492 kts | 108° |
| 2026-05-04 15:43 | 50.36270 | 6.75852 | 34988 ft | 492 kts | 107° |
| 2026-05-04 15:44 | 50.34819 | 6.86147 | 34987 ft | 493 kts | 107° |
| 2026-05-04 15:44 | 50.33320 | 6.96704 | 34987 ft | 494 kts | 107° |
| 2026-05-04 15:45 | 50.31910 | 7.06567 | 34997 ft | 495 kts | 107° |
| 2026-05-04 15:45 | 50.30398 | 7.17079 | 35011 ft | 495 kts | 107° |
| 2026-05-04 15:46 | 50.28870 | 7.27614 | 35020 ft | 496 kts | 107° |
| 2026-05-04 15:46 | 50.27338 | 7.38123 | 35020 ft | 497 kts | 107° |
| 2026-05-04 15:47 | 50.25796 | 7.48624 | 35020 ft | 497 kts | 107° |
| 2026-05-04 15:47 | 50.24240 | 7.59148 | 35022 ft | 497 kts | 107° |
| 2026-05-04 15:48 | 50.22686 | 7.69613 | 35014 ft | 497 kts | 108° |
| 2026-05-04 15:48 | 50.20320 | 7.85424 | 35017 ft | 497 kts | 108° |
| 2026-05-04 15:49 | 50.18749 | 7.95831 | 35015 ft | 497 kts | 108° |
| 2026-05-04 15:49 | 50.17247 | 8.05723 | 34993 ft | 497 kts | 108° |
| 2026-05-04 15:50 | 50.15634 | 8.16278 | 34970 ft | 497 kts | 108° |
| 2026-05-04 15:50 | 50.14033 | 8.26684 | 34964 ft | 497 kts | 108° |
| 2026-05-04 15:51 | 50.12402 | 8.37212 | 34965 ft | 498 kts | 108° |
| 2026-05-04 15:51 | 50.10777 | 8.47643 | 34965 ft | 498 kts | 108° |
| 2026-05-04 15:52 | 50.09123 | 8.58183 | 34966 ft | 499 kts | 108° |
| 2026-05-04 15:52 | 50.07518 | 8.68345 | 34963 ft | 499 kts | 108° |
| 2026-05-04 15:53 | 50.05832 | 8.78958 | 34962 ft | 498 kts | 108° |
| 2026-05-04 15:53 | 50.04108 | 8.89198 | 34963 ft | 499 kts | 109° |
| 2026-05-04 15:54 | 50.02441 | 8.98984 | 34962 ft | 499 kts | 109° |
| 2026-05-04 15:54 | 50.00645 | 9.09460 | 34962 ft | 499 kts | 109° |
| 2026-05-04 15:55 | 49.98853 | 9.19848 | 34961 ft | 495 kts | 108° |
| 2026-05-04 15:55 | 49.97057 | 9.30211 | 34965 ft | 494 kts | 108° |
| 2026-05-04 15:56 | 49.95251 | 9.40563 | 34965 ft | 496 kts | 108° |
| 2026-05-04 15:56 | 49.93453 | 9.50820 | 34965 ft | 495 kts | 108° |
| 2026-05-04 15:57 | 49.91636 | 9.61115 | 34966 ft | 496 kts | 108° |
| 2026-05-04 15:57 | 49.89809 | 9.71407 | 34961 ft | 496 kts | 109° |
| 2026-05-04 15:58 | 49.87974 | 9.81688 | 34966 ft | 496 kts | 109° |
| 2026-05-04 15:58 | 49.86232 | 9.91391 | 34968 ft | 496 kts | 109° |
| 2026-05-04 15:59 | 49.84380 | 10.01656 | 34968 ft | 495 kts | 109° |
| 2026-05-04 15:59 | 49.82545 | 10.11762 | 34969 ft | 496 kts | 109° |
| 2026-05-04 16:00 | 49.80664 | 10.22068 | 34968 ft | 496 kts | 109° |
| 2026-05-04 16:00 | 49.78878 | 10.31800 | 34968 ft | 496 kts | 109° |
| 2026-05-04 16:01 | 49.76997 | 10.41996 | 34967 ft | 496 kts | 109° |
| 2026-05-04 16:01 | 49.75095 | 10.52245 | 34966 ft | 495 kts | 109° |
| 2026-05-04 16:02 | 49.73256 | 10.62487 | 34968 ft | 496 kts | 108° |
| 2026-05-04 16:03 | 49.70629 | 10.77394 | 34963 ft | 495 kts | 108° |
| 2026-05-04 16:03 | 49.68849 | 10.87415 | 34963 ft | 495 kts | 108° |
| 2026-05-04 16:04 | 49.67079 | 10.97323 | 34965 ft | 495 kts | 108° |
| 2026-05-04 16:04 | 49.64330 | 11.12609 | 34966 ft | 495 kts | 108° |
| 2026-05-04 16:05 | 49.62482 | 11.22814 | 34967 ft | 495 kts | 108° |
| 2026-05-04 16:06 | 49.59712 | 11.38002 | 34968 ft | 495 kts | 108° |
| 2026-05-04 16:07 | 49.55830 | 11.58394 | 34970 ft | 494 kts | 112° |
| 2026-05-04 16:08 | 49.51351 | 11.77936 | 34965 ft | 494 kts | 112° |
| 2026-05-04 16:09 | 49.45719 | 12.02379 | 34980 ft | 495 kts | 112° |
| 2026-05-04 16:10 | 49.41100 | 12.22218 | 34982 ft | 494 kts | 112° |
| 2026-05-04 16:11 | 49.36423 | 12.42122 | 34983 ft | 494 kts | 112° |
| 2026-05-04 16:12 | 49.29924 | 12.71735 | 34978 ft | 494 kts | 110° |
| 2026-05-04 16:13 | 49.25748 | 12.91681 | 34976 ft | 494 kts | 110° |
| 2026-05-04 16:14 | 49.21577 | 13.11419 | 34962 ft | 495 kts | 110° |
| 2026-05-04 16:16 | 49.16219 | 13.36483 | 34948 ft | 494 kts | 110° |
| 2026-05-04 16:17 | 49.10817 | 13.61440 | 34940 ft | 495 kts | 110° |
| 2026-05-04 16:18 | 49.06429 | 13.81490 | 34937 ft | 495 kts | 110° |
| 2026-05-04 16:19 | 49.00941 | 14.06291 | 34939 ft | 495 kts | 110° |
| 2026-05-04 16:20 | 48.95259 | 14.31009 | 34936 ft | 493 kts | 117° |
| 2026-05-04 16:21 | 48.89717 | 14.43537 | 34928 ft | 490 kts | 128° |
| 2026-05-04 16:22 | 48.85553 | 14.51914 | 33893 ft | 488 kts | 129° |
| 2026-05-04 16:22 | 48.79504 | 14.63889 | 32326 ft | 487 kts | 129° |
| 2026-05-04 16:23 | 48.73132 | 14.76401 | 30635 ft | 490 kts | 129° |
| 2026-05-04 16:24 | 48.65095 | 14.92077 | 28482 ft | 485 kts | 129° |
| 2026-05-04 16:25 | 48.60931 | 15.00281 | 27366 ft | 476 kts | 126° |
| 2026-05-04 16:26 | 48.56422 | 15.18678 | 25225 ft | 463 kts | 105° |
| 2026-05-04 16:26 | 48.53975 | 15.32663 | 23657 ft | 453 kts | 105° |
| 2026-05-04 16:27 | 48.52388 | 15.41803 | 22632 ft | 446 kts | 104° |
| 2026-05-04 16:28 | 48.51359 | 15.55693 | 21115 ft | 439 kts | 96° |
| 2026-05-04 16:28 | 48.50580 | 15.69252 | 19646 ft | 429 kts | 96° |
| 2026-05-04 16:29 | 48.49536 | 15.86985 | 17696 ft | 418 kts | 97° |
| 2026-05-04 16:30 | 48.48792 | 15.99360 | 16336 ft | 402 kts | 97° |
| 2026-05-04 16:31 | 48.47223 | 16.06603 | 15339 ft | 334 kts | 128° |
| 2026-05-04 16:31 | 48.42670 | 16.12928 | 14199 ft | 270 kts | 153° |
| 2026-05-04 16:32 | 48.37985 | 16.16529 | 13409 ft | 238 kts | 159° |
| 2026-05-04 16:33 | 48.34983 | 16.18573 | 12841 ft | 234 kts | 160° |
| 2026-05-04 16:33 | 48.32014 | 16.20548 | 12300 ft | 231 kts | 159° |
| 2026-05-04 16:34 | 48.30095 | 16.24391 | 11695 ft | 250 kts | 99° |
| 2026-05-04 16:34 | 48.30299 | 16.26989 | 11379 ft | 254 kts | 76° |
| 2026-05-04 16:35 | 48.32494 | 16.34000 | 10446 ft | 251 kts | 33° |
| 2026-05-04 16:35 | 48.37514 | 16.33894 | 10276 ft | 248 kts | 343° |
| 2026-05-04 16:36 | 48.39159 | 16.33255 | 10235 ft | 246 kts | 343° |
| 2026-05-04 16:36 | 48.42489 | 16.31881 | 10210 ft | 249 kts | 342° |
| 2026-05-04 16:37 | 48.45878 | 16.30442 | 9532 ft | 253 kts | 342° |
| 2026-05-04 16:37 | 48.47612 | 16.30075 | 9208 ft | 253 kts | 6° |
| 2026-05-04 16:37 | 48.50351 | 16.32927 | 8468 ft | 247 kts | 66° |
| 2026-05-04 16:38 | 48.51191 | 16.37827 | 7813 ft | 239 kts | 98° |
| 2026-05-04 16:39 | 48.47921 | 16.42373 | 6832 ft | 224 kts | 162° |
| 2026-05-04 16:39 | 48.44987 | 16.43768 | 6293 ft | 219 kts | 164° |
| 2026-05-04 16:40 | 48.42121 | 16.45017 | 5802 ft | 212 kts | 165° |
| 2026-05-04 16:40 | 48.39301 | 16.46203 | 5326 ft | 209 kts | 165° |
| 2026-05-04 16:41 | 48.36530 | 16.47373 | 4956 ft | 204 kts | 164° |
| 2026-05-04 16:41 | 48.32932 | 16.48932 | 4797 ft | 151 kts | 165° |
| 2026-05-04 16:42 | 48.30009 | 16.50172 | 4228 ft | 145 kts | 165° |
| 2026-05-04 16:43 | 48.28076 | 16.50976 | 3862 ft | 144 kts | 164° |
| 2026-05-04 16:43 | 48.26164 | 16.51804 | 3490 ft | 144 kts | 164° |
| 2026-05-04 16:43 | 48.25191 | 16.52221 | 3304 ft | 144 kts | 164° |
| 2026-05-04 16:44 | 48.21395 | 16.53827 | 2546 ft | 141 kts | 163° |
| 2026-05-04 16:45 | 48.19507 | 16.54636 | 2164 ft | 139 kts | 163° |
| 2026-05-04 16:46 | 48.16736 | 16.55804 | 1604 ft | 136 kts | 161° |
| 2026-05-04 16:46 | 48.14910 | 16.56584 | 1231 ft | 135 kts | 161° |
| 2026-05-04 16:47 | 48.13097 | 16.57343 | 876 ft | 134 kts | 161° |
| 2026-05-04 16:47 | 48.11322 | 16.58095 | 612 ft | 118 kts | 164° |
| 2026-05-04 16:48 | 48.10114 | 16.58603 | 611 ft | 34 kts | 167° |
| 2026-05-04 16:48 | 48.09882 | 16.58605 | 611 ft | 32 kts | 187° |
| 2026-05-04 16:49 | 48.09640 | 16.58433 | 611 ft | 15 kts | 288° |
| 2026-05-04 16:49 | 48.09715 | 16.58355 | 611 ft | 0 kts | 344° |
| 2026-05-04 16:50 | 48.09742 | 16.58344 | 611 ft | 6 kts | 345° |
| 2026-05-04 16:51 | 48.09909 | 16.58279 | 611 ft | 17 kts | 343° |
| 2026-05-04 16:51 | 48.10048 | 16.58216 | 611 ft | 23 kts | 343° |
| 2026-05-04 16:51 | 48.10342 | 16.58091 | 611 ft | 28 kts | 345° |
| 2026-05-04 16:52 | 48.10699 | 16.57940 | 611 ft | 24 kts | 344° |
| 2026-05-04 16:52 | 48.10860 | 16.57872 | 611 ft | 23 kts | 343° |
| 2026-05-04 16:53 | 48.11140 | 16.57751 | 611 ft | 19 kts | 343° |
| 2026-05-04 16:53 | 48.11473 | 16.57613 | 611 ft | 14 kts | 343° |
| 2026-05-04 16:54 | 48.11563 | 16.57572 | 611 ft | 13 kts | 342° |
| 2026-05-04 16:55 | 48.11927 | 16.57424 | 611 ft | 14 kts | 345° |
| 2026-05-04 16:55 | 48.12126 | 16.57337 | 611 ft | 15 kts | 342° |
| 2026-05-04 16:56 | 48.12223 | 16.57164 | 611 ft | 4 kts | 302° |
| 2026-05-04 16:56 | 48.12287 | 16.57185 | 611 ft | 3 kts | 25° |
| 2026-05-04 16:57 | 48.12304 | 16.57197 | 611 ft | 0 kts | 25° |
| 2026-05-04 16:57 | 48.12306 | 16.57198 | 611 ft | 0 kts | 25° |